sensor_id;sensor_type;location;lat;lon;timestamp;P1;durP1;ratioP1;P2;durP2;ratioP2
7661;SDS011;30314;48.184;11.510;2024-02-26T00:00:25;3.80;;;2.77;;
7661;SDS011;30314;48.184;11.510;2024-02-26T00:02:52;4.80;;;2.90;;
7661;SDS011;30314;48.184;11.510;2024-02-26T00:05:19;4.70;;;3.13;;
7661;SDS011;30314;48.184;11.510;2024-02-26T00:07:45;5.10;;;2.97;;
7661;SDS011;30314;48.184;11.510;2024-02-26T00:10:13;3.50;;;1.93;;
7661;SDS011;30314;48.184;11.510;2024-02-26T00:12:40;5.23;;;2.90;;
7661;SDS011;30314;48.184;11.510;2024-02-26T00:15:07;4.77;;;2.87;;
7661;SDS011;30314;48.184;11.510;2024-02-26T00:17:34;4.87;;;2.40;;
7661;SDS011;30314;48.184;11.510;2024-02-26T00:20:02;3.00;;;2.00;;
7661;SDS011;30314;48.184;11.510;2024-02-26T00:22:31;4.83;;;2.87;;
7661;SDS011;30314;48.184;11.510;2024-02-26T00:24:57;3.50;;;2.30;;
7661;SDS011;30314;48.184;11.510;2024-02-26T00:27:24;3.20;;;1.90;;
7661;SDS011;30314;48.184;11.510;2024-02-26T00:29:51;3.70;;;2.10;;
7661;SDS011;30314;48.184;11.510;2024-02-26T00:32:17;3.83;;;2.20;;
7661;SDS011;30314;48.184;11.510;2024-02-26T00:34:44;4.00;;;1.97;;
7661;SDS011;30314;48.184;11.510;2024-02-26T00:37:11;3.83;;;2.40;;
7661;SDS011;30314;48.184;11.510;2024-02-26T00:39:37;4.20;;;2.27;;
7661;SDS011;30314;48.184;11.510;2024-02-26T00:42:04;3.03;;;1.97;;
7661;SDS011;30314;48.184;11.510;2024-02-26T00:44:31;5.47;;;2.30;;
7661;SDS011;30314;48.184;11.510;2024-02-26T00:46:58;3.30;;;2.17;;
7661;SDS011;30314;48.184;11.510;2024-02-26T00:49:24;3.70;;;2.20;;
7661;SDS011;30314;48.184;11.510;2024-02-26T00:51:51;4.30;;;2.37;;
7661;SDS011;30314;48.184;11.510;2024-02-26T00:54:18;4.80;;;2.27;;
7661;SDS011;30314;48.184;11.510;2024-02-26T00:56:44;3.90;;;2.40;;
7661;SDS011;30314;48.184;11.510;2024-02-26T00:59:11;6.23;;;2.27;;
7661;SDS011;30314;48.184;11.510;2024-02-26T01:01:38;2.77;;;1.93;;
7661;SDS011;30314;48.184;11.510;2024-02-26T01:04:04;3.10;;;2.30;;
7661;SDS011;30314;48.184;11.510;2024-02-26T01:06:31;5.80;;;2.63;;
7661;SDS011;30314;48.184;11.510;2024-02-26T01:08:57;6.53;;;2.50;;
7661;SDS011;30314;48.184;11.510;2024-02-26T01:11:24;4.20;;;1.90;;
7661;SDS011;30314;48.184;11.510;2024-02-26T01:13:51;3.97;;;2.03;;
7661;SDS011;30314;48.184;11.510;2024-02-26T01:16:23;3.43;;;1.73;;
7661;SDS011;30314;48.184;11.510;2024-02-26T01:18:49;3.90;;;2.10;;
7661;SDS011;30314;48.184;11.510;2024-02-26T01:21:16;3.80;;;2.23;;
7661;SDS011;30314;48.184;11.510;2024-02-26T01:23:43;2.17;;;1.63;;
7661;SDS011;30314;48.184;11.510;2024-02-26T01:26:10;6.60;;;2.33;;
7661;SDS011;30314;48.184;11.510;2024-02-26T01:28:37;2.70;;;1.77;;
7661;SDS011;30314;48.184;11.510;2024-02-26T01:31:03;3.23;;;2.43;;
7661;SDS011;30314;48.184;11.510;2024-02-26T01:33:33;2.93;;;2.17;;
7661;SDS011;30314;48.184;11.510;2024-02-26T01:35:59;2.70;;;1.70;;
7661;SDS011;30314;48.184;11.510;2024-02-26T01:38:27;3.27;;;2.23;;
7661;SDS011;30314;48.184;11.510;2024-02-26T01:40:54;3.03;;;1.93;;
7661;SDS011;30314;48.184;11.510;2024-02-26T01:43:21;3.67;;;1.90;;
7661;SDS011;30314;48.184;11.510;2024-02-26T01:45:48;4.50;;;1.90;;
7661;SDS011;30314;48.184;11.510;2024-02-26T01:48:15;4.97;;;1.77;;
7661;SDS011;30314;48.184;11.510;2024-02-26T01:50:41;2.97;;;1.83;;
7661;SDS011;30314;48.184;11.510;2024-02-26T01:53:08;3.03;;;1.80;;
7661;SDS011;30314;48.184;11.510;2024-02-26T01:55:36;2.67;;;1.80;;
7661;SDS011;30314;48.184;11.510;2024-02-26T01:58:06;4.07;;;2.70;;
7661;SDS011;30314;48.184;11.510;2024-02-26T02:00:33;4.80;;;2.37;;
7661;SDS011;30314;48.184;11.510;2024-02-26T02:03:01;4.10;;;1.87;;
7661;SDS011;30314;48.184;11.510;2024-02-26T02:05:30;2.83;;;1.90;;
7661;SDS011;30314;48.184;11.510;2024-02-26T02:07:57;2.47;;;2.03;;
7661;SDS011;30314;48.184;11.510;2024-02-26T02:10:24;2.60;;;1.80;;
7661;SDS011;30314;48.184;11.510;2024-02-26T02:12:52;3.70;;;1.60;;
7661;SDS011;30314;48.184;11.510;2024-02-26T02:15:19;3.53;;;2.23;;
7661;SDS011;30314;48.184;11.510;2024-02-26T02:17:47;4.27;;;2.20;;
7661;SDS011;30314;48.184;11.510;2024-02-26T02:20:17;3.33;;;2.13;;
7661;SDS011;30314;48.184;11.510;2024-02-26T02:22:45;2.43;;;1.50;;
7661;SDS011;30314;48.184;11.510;2024-02-26T02:25:13;5.13;;;2.03;;
7661;SDS011;30314;48.184;11.510;2024-02-26T02:27:40;2.60;;;1.53;;
7661;SDS011;30314;48.184;11.510;2024-02-26T02:30:08;3.23;;;2.30;;
7661;SDS011;30314;48.184;11.510;2024-02-26T02:32:36;5.87;;;2.10;;
7661;SDS011;30314;48.184;11.510;2024-02-26T02:35:06;5.00;;;2.07;;
7661;SDS011;30314;48.184;11.510;2024-02-26T02:37:33;2.30;;;1.70;;
7661;SDS011;30314;48.184;11.510;2024-02-26T02:40:00;4.07;;;2.27;;
7661;SDS011;30314;48.184;11.510;2024-02-26T02:42:26;3.33;;;1.60;;
7661;SDS011;30314;48.184;11.510;2024-02-26T02:44:53;5.23;;;1.97;;
7661;SDS011;30314;48.184;11.510;2024-02-26T02:47:20;2.60;;;1.70;;
7661;SDS011;30314;48.184;11.510;2024-02-26T02:49:46;3.07;;;1.70;;
7661;SDS011;30314;48.184;11.510;2024-02-26T02:52:13;3.57;;;1.77;;
7661;SDS011;30314;48.184;11.510;2024-02-26T02:54:39;2.27;;;1.60;;
7661;SDS011;30314;48.184;11.510;2024-02-26T02:57:08;4.07;;;2.20;;
7661;SDS011;30314;48.184;11.510;2024-02-26T02:59:36;5.27;;;2.40;;
7661;SDS011;30314;48.184;11.510;2024-02-26T03:02:03;3.47;;;1.93;;
7661;SDS011;30314;48.184;11.510;2024-02-26T03:04:30;3.53;;;2.13;;
7661;SDS011;30314;48.184;11.510;2024-02-26T03:06:58;4.57;;;1.83;;
7661;SDS011;30314;48.184;11.510;2024-02-26T03:09:24;2.80;;;1.90;;
7661;SDS011;30314;48.184;11.510;2024-02-26T03:11:51;3.57;;;1.70;;
7661;SDS011;30314;48.184;11.510;2024-02-26T03:14:18;2.33;;;1.57;;
7661;SDS011;30314;48.184;11.510;2024-02-26T03:16:45;3.00;;;1.70;;
7661;SDS011;30314;48.184;11.510;2024-02-26T03:19:14;2.17;;;1.57;;
7661;SDS011;30314;48.184;11.510;2024-02-26T03:21:42;3.60;;;1.93;;
7661;SDS011;30314;48.184;11.510;2024-02-26T03:24:08;7.30;;;2.37;;
7661;SDS011;30314;48.184;11.510;2024-02-26T03:26:38;2.23;;;1.20;;
7661;SDS011;30314;48.184;11.510;2024-02-26T03:29:05;4.13;;;1.77;;
7661;SDS011;30314;48.184;11.510;2024-02-26T03:31:32;1.73;;;1.30;;
7661;SDS011;30314;48.184;11.510;2024-02-26T03:33:58;3.17;;;1.70;;
7661;SDS011;30314;48.184;11.510;2024-02-26T03:36:25;2.97;;;1.77;;
7661;SDS011;30314;48.184;11.510;2024-02-26T03:38:52;3.43;;;1.90;;
7661;SDS011;30314;48.184;11.510;2024-02-26T03:41:19;2.80;;;1.33;;
7661;SDS011;30314;48.184;11.510;2024-02-26T03:43:45;1.70;;;1.20;;
7661;SDS011;30314;48.184;11.510;2024-02-26T03:46:12;3.00;;;1.73;;
7661;SDS011;30314;48.184;11.510;2024-02-26T03:48:40;3.77;;;1.40;;
7661;SDS011;30314;48.184;11.510;2024-02-26T03:51:11;3.57;;;1.40;;
7661;SDS011;30314;48.184;11.510;2024-02-26T03:53:37;3.33;;;1.50;;
7661;SDS011;30314;48.184;11.510;2024-02-26T03:56:04;3.03;;;1.63;;
7661;SDS011;30314;48.184;11.510;2024-02-26T03:58:32;2.43;;;1.53;;
7661;SDS011;30314;48.184;11.510;2024-02-26T04:00:59;2.20;;;1.50;;
7661;SDS011;30314;48.184;11.510;2024-02-26T04:03:26;2.20;;;1.10;;
7661;SDS011;30314;48.184;11.510;2024-02-26T04:05:53;4.30;;;1.87;;
7661;SDS011;30314;48.184;11.510;2024-02-26T04:08:20;2.70;;;1.77;;
7661;SDS011;30314;48.184;11.510;2024-02-26T04:10:46;1.67;;;0.90;;
7661;SDS011;30314;48.184;11.510;2024-02-26T04:13:13;4.20;;;1.67;;
7661;SDS011;30314;48.184;11.510;2024-02-26T04:15:39;2.90;;;1.40;;
7661;SDS011;30314;48.184;11.510;2024-02-26T04:18:06;3.20;;;2.10;;
7661;SDS011;30314;48.184;11.510;2024-02-26T04:20:33;2.53;;;1.10;;
7661;SDS011;30314;48.184;11.510;2024-02-26T04:22:59;3.50;;;1.80;;
7661;SDS011;30314;48.184;11.510;2024-02-26T04:25:26;2.20;;;1.50;;
7661;SDS011;30314;48.184;11.510;2024-02-26T04:27:53;2.30;;;1.47;;
7661;SDS011;30314;48.184;11.510;2024-02-26T04:30:20;2.60;;;1.30;;
7661;SDS011;30314;48.184;11.510;2024-02-26T04:32:46;4.70;;;1.90;;
7661;SDS011;30314;48.184;11.510;2024-02-26T04:35:13;2.53;;;1.60;;
7661;SDS011;30314;48.184;11.510;2024-02-26T04:37:40;3.47;;;1.60;;
7661;SDS011;30314;48.184;11.510;2024-02-26T04:40:06;3.13;;;1.40;;
7661;SDS011;30314;48.184;11.510;2024-02-26T04:42:34;3.93;;;1.73;;
7661;SDS011;30314;48.184;11.510;2024-02-26T04:45:00;2.70;;;1.57;;
7661;SDS011;30314;48.184;11.510;2024-02-26T04:47:27;2.00;;;1.27;;
7661;SDS011;30314;48.184;11.510;2024-02-26T04:49:53;1.50;;;1.20;;
7661;SDS011;30314;48.184;11.510;2024-02-26T04:52:21;2.77;;;1.60;;
7661;SDS011;30314;48.184;11.510;2024-02-26T04:54:48;3.83;;;1.60;;
7661;SDS011;30314;48.184;11.510;2024-02-26T04:57:14;2.20;;;1.40;;
7661;SDS011;30314;48.184;11.510;2024-02-26T04:59:41;2.97;;;1.60;;
7661;SDS011;30314;48.184;11.510;2024-02-26T05:02:08;1.97;;;1.30;;
7661;SDS011;30314;48.184;11.510;2024-02-26T05:04:36;2.47;;;1.40;;
7661;SDS011;30314;48.184;11.510;2024-02-26T05:07:02;2.10;;;1.60;;
7661;SDS011;30314;48.184;11.510;2024-02-26T05:09:29;3.60;;;1.90;;
7661;SDS011;30314;48.184;11.510;2024-02-26T05:11:56;2.90;;;1.30;;
7661;SDS011;30314;48.184;11.510;2024-02-26T05:14:23;5.13;;;1.90;;
7661;SDS011;30314;48.184;11.510;2024-02-26T05:16:49;2.83;;;1.73;;
7661;SDS011;30314;48.184;11.510;2024-02-26T05:19:16;3.30;;;1.73;;
7661;SDS011;30314;48.184;11.510;2024-02-26T05:21:43;3.47;;;2.10;;
7661;SDS011;30314;48.184;11.510;2024-02-26T05:24:10;2.53;;;1.50;;
7661;SDS011;30314;48.184;11.510;2024-02-26T05:26:37;2.90;;;1.70;;
7661;SDS011;30314;48.184;11.510;2024-02-26T05:29:03;3.77;;;1.60;;
7661;SDS011;30314;48.184;11.510;2024-02-26T05:31:30;5.60;;;2.00;;
7661;SDS011;30314;48.184;11.510;2024-02-26T05:33:56;12.30;;;2.47;;
7661;SDS011;30314;48.184;11.510;2024-02-26T05:36:23;4.17;;;2.10;;
7661;SDS011;30314;48.184;11.510;2024-02-26T05:38:51;3.00;;;1.90;;
7661;SDS011;30314;48.184;11.510;2024-02-26T05:41:18;5.13;;;1.97;;
7661;SDS011;30314;48.184;11.510;2024-02-26T05:43:49;5.17;;;2.40;;
7661;SDS011;30314;48.184;11.510;2024-02-26T05:46:19;4.57;;;2.43;;
7661;SDS011;30314;48.184;11.510;2024-02-26T05:48:47;4.50;;;2.27;;
7661;SDS011;30314;48.184;11.510;2024-02-26T05:51:15;5.50;;;2.40;;
7661;SDS011;30314;48.184;11.510;2024-02-26T05:53:42;8.70;;;2.20;;
7661;SDS011;30314;48.184;11.510;2024-02-26T05:56:08;2.73;;;2.07;;
7661;SDS011;30314;48.184;11.510;2024-02-26T05:58:35;4.00;;;2.40;;
7661;SDS011;30314;48.184;11.510;2024-02-26T06:01:02;6.20;;;2.53;;
7661;SDS011;30314;48.184;11.510;2024-02-26T06:03:29;5.90;;;2.00;;
7661;SDS011;30314;48.184;11.510;2024-02-26T06:05:56;3.83;;;2.20;;
7661;SDS011;30314;48.184;11.510;2024-02-26T06:08:23;3.80;;;2.50;;
7661;SDS011;30314;48.184;11.510;2024-02-26T06:10:49;4.90;;;2.57;;
7661;SDS011;30314;48.184;11.510;2024-02-26T06:13:16;7.03;;;2.50;;
7661;SDS011;30314;48.184;11.510;2024-02-26T06:15:42;5.30;;;2.60;;
7661;SDS011;30314;48.184;11.510;2024-02-26T06:18:09;6.53;;;2.90;;
7661;SDS011;30314;48.184;11.510;2024-02-26T06:20:35;5.17;;;2.33;;
7661;SDS011;30314;48.184;11.510;2024-02-26T06:23:02;8.80;;;3.03;;
7661;SDS011;30314;48.184;11.510;2024-02-26T06:25:28;6.50;;;4.00;;
7661;SDS011;30314;48.184;11.510;2024-02-26T06:27:55;6.73;;;3.00;;
7661;SDS011;30314;48.184;11.510;2024-02-26T06:30:22;7.07;;;3.00;;
7661;SDS011;30314;48.184;11.510;2024-02-26T06:32:48;7.23;;;2.97;;
7661;SDS011;30314;48.184;11.510;2024-02-26T06:35:15;6.20;;;3.83;;
7661;SDS011;30314;48.184;11.510;2024-02-26T06:37:42;6.07;;;3.30;;
7661;SDS011;30314;48.184;11.510;2024-02-26T06:40:08;7.07;;;4.23;;
7661;SDS011;30314;48.184;11.510;2024-02-26T06:42:35;9.97;;;3.20;;
7661;SDS011;30314;48.184;11.510;2024-02-26T06:45:02;7.60;;;2.40;;
7661;SDS011;30314;48.184;11.510;2024-02-26T06:47:30;5.53;;;3.17;;
7661;SDS011;30314;48.184;11.510;2024-02-26T06:49:57;3.20;;;1.63;;
7661;SDS011;30314;48.184;11.510;2024-02-26T06:52:24;4.50;;;2.53;;
7661;SDS011;30314;48.184;11.510;2024-02-26T06:54:52;6.10;;;2.80;;
7661;SDS011;30314;48.184;11.510;2024-02-26T06:57:19;6.53;;;2.90;;
7661;SDS011;30314;48.184;11.510;2024-02-26T06:59:46;3.60;;;2.37;;
7661;SDS011;30314;48.184;11.510;2024-02-26T07:02:13;8.47;;;2.63;;
7661;SDS011;30314;48.184;11.510;2024-02-26T07:04:40;6.87;;;3.53;;
7661;SDS011;30314;48.184;11.510;2024-02-26T07:07:07;7.00;;;3.67;;
7661;SDS011;30314;48.184;11.510;2024-02-26T07:09:35;10.80;;;3.77;;
7661;SDS011;30314;48.184;11.510;2024-02-26T07:12:01;19.57;;;5.23;;
7661;SDS011;30314;48.184;11.510;2024-02-26T07:14:28;7.93;;;4.17;;
7661;SDS011;30314;48.184;11.510;2024-02-26T07:16:55;6.10;;;3.80;;
7661;SDS011;30314;48.184;11.510;2024-02-26T07:19:22;5.60;;;3.30;;
7661;SDS011;30314;48.184;11.510;2024-02-26T07:21:49;7.33;;;4.13;;
7661;SDS011;30314;48.184;11.510;2024-02-26T07:24:15;7.70;;;4.40;;
7661;SDS011;30314;48.184;11.510;2024-02-26T07:26:42;7.70;;;3.80;;
7661;SDS011;30314;48.184;11.510;2024-02-26T07:29:09;8.33;;;3.80;;
7661;SDS011;30314;48.184;11.510;2024-02-26T07:31:36;10.50;;;5.10;;
7661;SDS011;30314;48.184;11.510;2024-02-26T07:34:02;10.20;;;5.53;;
7661;SDS011;30314;48.184;11.510;2024-02-26T07:36:29;10.37;;;4.67;;
7661;SDS011;30314;48.184;11.510;2024-02-26T07:38:56;10.80;;;4.50;;
7661;SDS011;30314;48.184;11.510;2024-02-26T07:41:22;9.53;;;4.87;;
7661;SDS011;30314;48.184;11.510;2024-02-26T07:43:49;7.50;;;4.50;;
7661;SDS011;30314;48.184;11.510;2024-02-26T07:46:15;10.30;;;4.40;;
7661;SDS011;30314;48.184;11.510;2024-02-26T07:48:42;6.47;;;4.27;;
7661;SDS011;30314;48.184;11.510;2024-02-26T07:51:11;8.23;;;4.73;;
7661;SDS011;30314;48.184;11.510;2024-02-26T07:53:39;6.70;;;4.40;;
7661;SDS011;30314;48.184;11.510;2024-02-26T07:56:05;6.27;;;3.90;;
7661;SDS011;30314;48.184;11.510;2024-02-26T07:58:32;9.43;;;4.57;;
7661;SDS011;30314;48.184;11.510;2024-02-26T08:00:59;8.83;;;4.33;;
7661;SDS011;30314;48.184;11.510;2024-02-26T08:03:26;10.37;;;4.90;;
7661;SDS011;30314;48.184;11.510;2024-02-26T08:05:53;7.37;;;5.17;;
7661;SDS011;30314;48.184;11.510;2024-02-26T08:08:20;7.03;;;3.63;;
7661;SDS011;30314;48.184;11.510;2024-02-26T08:10:47;11.40;;;4.90;;
7661;SDS011;30314;48.184;11.510;2024-02-26T08:13:13;5.80;;;2.83;;
7661;SDS011;30314;48.184;11.510;2024-02-26T08:15:40;9.20;;;5.30;;
7661;SDS011;30314;48.184;11.510;2024-02-26T08:18:06;9.50;;;5.00;;
7661;SDS011;30314;48.184;11.510;2024-02-26T08:20:33;7.50;;;4.00;;
7661;SDS011;30314;48.184;11.510;2024-02-26T08:23:00;12.97;;;5.10;;
7661;SDS011;30314;48.184;11.510;2024-02-26T08:25:27;7.43;;;4.40;;
7661;SDS011;30314;48.184;11.510;2024-02-26T08:27:53;11.80;;;5.63;;
7661;SDS011;30314;48.184;11.510;2024-02-26T08:30:20;8.27;;;4.57;;
7661;SDS011;30314;48.184;11.510;2024-02-26T08:32:46;17.27;;;5.20;;
7661;SDS011;30314;48.184;11.510;2024-02-26T08:35:17;9.60;;;4.20;;
7661;SDS011;30314;48.184;11.510;2024-02-26T08:37:45;15.47;;;6.00;;
7661;SDS011;30314;48.184;11.510;2024-02-26T08:40:13;9.27;;;5.90;;
7661;SDS011;30314;48.184;11.510;2024-02-26T08:42:40;11.70;;;5.63;;
7661;SDS011;30314;48.184;11.510;2024-02-26T08:45:07;9.10;;;6.03;;
7661;SDS011;30314;48.184;11.510;2024-02-26T08:47:34;12.17;;;4.47;;
7661;SDS011;30314;48.184;11.510;2024-02-26T08:50:01;11.10;;;4.40;;
7661;SDS011;30314;48.184;11.510;2024-02-26T08:52:28;12.10;;;6.33;;
7661;SDS011;30314;48.184;11.510;2024-02-26T08:54:54;10.73;;;6.37;;
7661;SDS011;30314;48.184;11.510;2024-02-26T08:57:21;15.63;;;5.80;;
7661;SDS011;30314;48.184;11.510;2024-02-26T08:59:47;14.70;;;5.27;;
7661;SDS011;30314;48.184;11.510;2024-02-26T09:02:15;8.27;;;5.03;;
7661;SDS011;30314;48.184;11.510;2024-02-26T09:04:42;14.63;;;4.60;;
7661;SDS011;30314;48.184;11.510;2024-02-26T09:07:09;8.40;;;4.43;;
7661;SDS011;30314;48.184;11.510;2024-02-26T09:09:35;10.57;;;4.23;;
7661;SDS011;30314;48.184;11.510;2024-02-26T09:12:03;6.33;;;3.93;;
7661;SDS011;30314;48.184;11.510;2024-02-26T09:14:30;10.23;;;4.57;;
7661;SDS011;30314;48.184;11.510;2024-02-26T09:16:56;6.73;;;3.80;;
7661;SDS011;30314;48.184;11.510;2024-02-26T09:19:23;7.50;;;4.40;;
7661;SDS011;30314;48.184;11.510;2024-02-26T09:21:52;5.37;;;3.67;;
7661;SDS011;30314;48.184;11.510;2024-02-26T09:24:21;8.10;;;4.23;;
7661;SDS011;30314;48.184;11.510;2024-02-26T09:26:47;8.63;;;4.40;;
7661;SDS011;30314;48.184;11.510;2024-02-26T09:29:14;7.20;;;4.40;;
7661;SDS011;30314;48.184;11.510;2024-02-26T09:31:40;7.30;;;3.40;;
7661;SDS011;30314;48.184;11.510;2024-02-26T09:34:07;5.00;;;2.83;;
7661;SDS011;30314;48.184;11.510;2024-02-26T09:36:34;3.63;;;2.37;;
7661;SDS011;30314;48.184;11.510;2024-02-26T09:39:01;6.93;;;2.77;;
7661;SDS011;30314;48.184;11.510;2024-02-26T09:41:29;6.73;;;3.40;;
7661;SDS011;30314;48.184;11.510;2024-02-26T09:43:57;9.40;;;3.07;;
7661;SDS011;30314;48.184;11.510;2024-02-26T09:46:25;4.30;;;2.50;;
7661;SDS011;30314;48.184;11.510;2024-02-26T09:48:52;8.67;;;2.90;;
7661;SDS011;30314;48.184;11.510;2024-02-26T09:51:19;6.60;;;2.83;;
7661;SDS011;30314;48.184;11.510;2024-02-26T09:53:49;9.83;;;2.50;;
7661;SDS011;30314;48.184;11.510;2024-02-26T09:56:18;9.07;;;2.47;;
7661;SDS011;30314;48.184;11.510;2024-02-26T09:58:46;3.40;;;2.23;;
7661;SDS011;30314;48.184;11.510;2024-02-26T10:01:18;11.83;;;2.10;;
7661;SDS011;30314;48.184;11.510;2024-02-26T10:03:48;4.20;;;1.67;;
7661;SDS011;30314;48.184;11.510;2024-02-26T10:06:21;4.63;;;2.53;;
7661;SDS011;30314;48.184;11.510;2024-02-26T10:08:48;8.60;;;2.87;;
7661;SDS011;30314;48.184;11.510;2024-02-26T10:11:15;4.30;;;2.00;;
7661;SDS011;30314;48.184;11.510;2024-02-26T10:13:43;3.10;;;2.00;;
7661;SDS011;30314;48.184;11.510;2024-02-26T10:16:09;16.70;;;4.63;;
7661;SDS011;30314;48.184;11.510;2024-02-26T10:18:46;8.07;;;2.57;;
7661;SDS011;30314;48.184;11.510;2024-02-26T10:21:25;12.40;;;4.53;;
7661;SDS011;30314;48.184;11.510;2024-02-26T10:23:52;6.17;;;2.80;;
7661;SDS011;30314;48.184;11.510;2024-02-26T10:26:18;3.73;;;1.33;;
7661;SDS011;30314;48.184;11.510;2024-02-26T10:28:46;5.17;;;1.83;;
7661;SDS011;30314;48.184;11.510;2024-02-26T10:31:17;2.70;;;1.17;;
7661;SDS011;30314;48.184;11.510;2024-02-26T10:33:45;8.27;;;3.47;;
7661;SDS011;30314;48.184;11.510;2024-02-26T10:36:12;7.13;;;2.80;;
7661;SDS011;30314;48.184;11.510;2024-02-26T10:38:38;3.97;;;1.97;;
7661;SDS011;30314;48.184;11.510;2024-02-26T10:41:12;5.10;;;1.80;;
7661;SDS011;30314;48.184;11.510;2024-02-26T10:43:42;9.83;;;3.40;;
7661;SDS011;30314;48.184;11.510;2024-02-26T10:46:09;5.83;;;2.40;;
7661;SDS011;30314;48.184;11.510;2024-02-26T10:48:36;6.07;;;1.20;;
7661;SDS011;30314;48.184;11.510;2024-02-26T10:51:03;2.53;;;1.70;;
7661;SDS011;30314;48.184;11.510;2024-02-26T10:53:31;4.13;;;1.77;;
7661;SDS011;30314;48.184;11.510;2024-02-26T10:56:03;6.00;;;1.57;;
7661;SDS011;30314;48.184;11.510;2024-02-26T10:58:33;3.83;;;1.20;;
7661;SDS011;30314;48.184;11.510;2024-02-26T11:01:01;3.40;;;1.20;;
7661;SDS011;30314;48.184;11.510;2024-02-26T11:03:29;5.10;;;1.60;;
7661;SDS011;30314;48.184;11.510;2024-02-26T11:06:02;4.40;;;1.30;;
7661;SDS011;30314;48.184;11.510;2024-02-26T11:08:30;2.13;;;1.10;;
7661;SDS011;30314;48.184;11.510;2024-02-26T11:10:58;6.50;;;1.70;;
7661;SDS011;30314;48.184;11.510;2024-02-26T11:13:26;4.60;;;2.83;;
7661;SDS011;30314;48.184;11.510;2024-02-26T11:15:56;2.97;;;1.40;;
7661;SDS011;30314;48.184;11.510;2024-02-26T11:18:29;6.43;;;1.50;;
7661;SDS011;30314;48.184;11.510;2024-02-26T11:20:56;2.10;;;1.20;;
7661;SDS011;30314;48.184;11.510;2024-02-26T11:23:24;1.97;;;0.97;;
7661;SDS011;30314;48.184;11.510;2024-02-26T11:25:51;1.53;;;0.70;;
7661;SDS011;30314;48.184;11.510;2024-02-26T11:28:21;12.40;;;0.87;;
7661;SDS011;30314;48.184;11.510;2024-02-26T11:30:49;1.40;;;0.60;;
7661;SDS011;30314;48.184;11.510;2024-02-26T11:33:17;4.40;;;0.63;;
7661;SDS011;30314;48.184;11.510;2024-02-26T11:35:46;3.63;;;0.70;;
7661;SDS011;30314;48.184;11.510;2024-02-26T11:38:19;1.20;;;0.67;;
7661;SDS011;30314;48.184;11.510;2024-02-26T11:40:48;1.40;;;0.80;;
7661;SDS011;30314;48.184;11.510;2024-02-26T11:43:14;5.13;;;0.70;;
7661;SDS011;30314;48.184;11.510;2024-02-26T11:48:12;1.33;;;0.63;;
7661;SDS011;30314;48.184;11.510;2024-02-26T11:50:41;8.00;;;1.23;;
7661;SDS011;30314;48.184;11.510;2024-02-26T11:53:22;2.23;;;0.70;;
7661;SDS011;30314;48.184;11.510;2024-02-26T11:56:12;3.20;;;0.97;;
7661;SDS011;30314;48.184;11.510;2024-02-26T11:58:39;2.83;;;0.90;;
7661;SDS011;30314;48.184;11.510;2024-02-26T12:06:52;1.20;;;0.50;;
7661;SDS011;30314;48.184;11.510;2024-02-26T12:12:18;6.73;;;0.90;;
7661;SDS011;30314;48.184;11.510;2024-02-26T12:14:52;1.70;;;0.73;;
7661;SDS011;30314;48.184;11.510;2024-02-26T12:17:20;6.40;;;0.70;;
7661;SDS011;30314;48.184;11.510;2024-02-26T12:19:48;2.37;;;0.77;;
7661;SDS011;30314;48.184;11.510;2024-02-26T12:22:15;1.80;;;0.50;;
7661;SDS011;30314;48.184;11.510;2024-02-26T12:24:45;4.10;;;0.73;;
7661;SDS011;30314;48.184;11.510;2024-02-26T12:27:12;1.27;;;0.80;;
7661;SDS011;30314;48.184;11.510;2024-02-26T12:29:39;1.80;;;0.70;;
7661;SDS011;30314;48.184;11.510;2024-02-26T12:32:06;1.33;;;0.57;;
7661;SDS011;30314;48.184;11.510;2024-02-26T12:34:33;1.43;;;0.60;;
7661;SDS011;30314;48.184;11.510;2024-02-26T12:37:01;1.73;;;0.77;;
7661;SDS011;30314;48.184;11.510;2024-02-26T12:39:28;4.00;;;0.73;;
7661;SDS011;30314;48.184;11.510;2024-02-26T12:41:55;1.77;;;0.70;;
7661;SDS011;30314;48.184;11.510;2024-02-26T12:44:26;1.93;;;1.10;;
7661;SDS011;30314;48.184;11.510;2024-02-26T12:47:10;3.23;;;0.90;;
7661;SDS011;30314;48.184;11.510;2024-02-26T12:49:42;1.20;;;0.83;;
7661;SDS011;30314;48.184;11.510;2024-02-26T12:52:10;4.70;;;0.93;;
7661;SDS011;30314;48.184;11.510;2024-02-26T12:54:37;1.63;;;0.67;;
7661;SDS011;30314;48.184;11.510;2024-02-26T12:57:08;2.80;;;1.03;;
7661;SDS011;30314;48.184;11.510;2024-02-26T12:59:35;1.90;;;1.00;;
7661;SDS011;30314;48.184;11.510;2024-02-26T13:02:03;1.67;;;0.97;;
7661;SDS011;30314;48.184;11.510;2024-02-26T13:04:33;1.80;;;0.90;;
7661;SDS011;30314;48.184;11.510;2024-02-26T13:07:03;2.87;;;0.93;;
7661;SDS011;30314;48.184;11.510;2024-02-26T13:09:32;6.13;;;1.47;;
7661;SDS011;30314;48.184;11.510;2024-02-26T13:12:03;2.07;;;1.17;;
7661;SDS011;30314;48.184;11.510;2024-02-26T13:14:32;2.40;;;0.80;;
7661;SDS011;30314;48.184;11.510;2024-02-26T13:17:00;2.37;;;1.00;;
7661;SDS011;30314;48.184;11.510;2024-02-26T13:19:27;2.70;;;1.13;;
7661;SDS011;30314;48.184;11.510;2024-02-26T13:22:06;2.30;;;1.20;;
7661;SDS011;30314;48.184;11.510;2024-02-26T13:24:34;1.57;;;1.10;;
7661;SDS011;30314;48.184;11.510;2024-02-26T13:27:01;3.20;;;0.83;;
7661;SDS011;30314;48.184;11.510;2024-02-26T13:29:31;2.30;;;0.87;;
7661;SDS011;30314;48.184;11.510;2024-02-26T13:31:57;4.23;;;1.53;;
7661;SDS011;30314;48.184;11.510;2024-02-26T13:34:25;2.03;;;1.10;;
7661;SDS011;30314;48.184;11.510;2024-02-26T13:36:53;2.37;;;0.93;;
7661;SDS011;30314;48.184;11.510;2024-02-26T13:39:22;1.77;;;0.80;;
7661;SDS011;30314;48.184;11.510;2024-02-26T13:41:52;2.43;;;1.30;;
7661;SDS011;30314;48.184;11.510;2024-02-26T13:44:20;3.03;;;1.17;;
7661;SDS011;30314;48.184;11.510;2024-02-26T13:46:47;1.10;;;0.70;;
7661;SDS011;30314;48.184;11.510;2024-02-26T13:49:15;1.10;;;0.50;;
7661;SDS011;30314;48.184;11.510;2024-02-26T13:51:42;1.60;;;0.60;;
7661;SDS011;30314;48.184;11.510;2024-02-26T13:54:09;4.13;;;0.90;;
7661;SDS011;30314;48.184;11.510;2024-02-26T13:56:36;5.00;;;1.17;;
7661;SDS011;30314;48.184;11.510;2024-02-26T13:59:03;1.43;;;0.83;;
7661;SDS011;30314;48.184;11.510;2024-02-26T14:01:30;1.73;;;0.80;;
7661;SDS011;30314;48.184;11.510;2024-02-26T14:03:59;0.90;;;0.40;;
7661;SDS011;30314;48.184;11.510;2024-02-26T14:06:28;2.90;;;0.50;;
7661;SDS011;30314;48.184;11.510;2024-02-26T14:08:57;1.10;;;0.70;;
7661;SDS011;30314;48.184;11.510;2024-02-26T14:11:24;1.70;;;0.60;;
7661;SDS011;30314;48.184;11.510;2024-02-26T14:13:51;1.77;;;0.67;;
7661;SDS011;30314;48.184;11.510;2024-02-26T14:16:18;3.17;;;0.50;;
7661;SDS011;30314;48.184;11.510;2024-02-26T14:18:46;2.53;;;0.77;;
7661;SDS011;30314;48.184;11.510;2024-02-26T14:21:13;1.00;;;0.57;;
7661;SDS011;30314;48.184;11.510;2024-02-26T14:23:40;2.93;;;0.80;;
7661;SDS011;30314;48.184;11.510;2024-02-26T14:26:06;2.73;;;0.80;;
7661;SDS011;30314;48.184;11.510;2024-02-26T14:28:33;1.73;;;0.60;;
7661;SDS011;30314;48.184;11.510;2024-02-26T14:31:02;0.90;;;0.50;;
7661;SDS011;30314;48.184;11.510;2024-02-26T14:33:30;2.20;;;0.73;;
7661;SDS011;30314;48.184;11.510;2024-02-26T14:35:57;1.50;;;0.70;;
7661;SDS011;30314;48.184;11.510;2024-02-26T14:38:24;1.00;;;0.57;;
7661;SDS011;30314;48.184;11.510;2024-02-26T14:40:50;1.40;;;0.70;;
7661;SDS011;30314;48.184;11.510;2024-02-26T14:43:17;2.70;;;1.50;;
7661;SDS011;30314;48.184;11.510;2024-02-26T14:45:43;2.10;;;0.97;;
7661;SDS011;30314;48.184;11.510;2024-02-26T14:48:10;3.70;;;0.93;;
7661;SDS011;30314;48.184;11.510;2024-02-26T14:50:37;2.80;;;1.30;;
7661;SDS011;30314;48.184;11.510;2024-02-26T14:53:04;2.63;;;1.47;;
7661;SDS011;30314;48.184;11.510;2024-02-26T14:55:31;6.70;;;1.00;;
7661;SDS011;30314;48.184;11.510;2024-02-26T14:57:57;2.07;;;1.20;;